createdAt,value
2018-06-30T00:02:16.535Z,6.03
2018-06-30T00:04:52.709Z,5.63
2018-06-30T00:07:23.149Z,6.43
2018-06-30T00:09:52.406Z,5.20
2018-06-30T00:12:21.657Z,5.20
2018-06-30T00:14:51.063Z,5.80
2018-06-30T00:17:20.324Z,6.23
2018-06-30T00:19:49.548Z,5.50
2018-06-30T00:22:18.828Z,6.40
2018-06-30T00:24:48.045Z,5.77
2018-06-30T00:27:22.474Z,6.10
2018-06-30T00:29:51.639Z,5.67
2018-06-30T00:32:20.853Z,6.63
2018-06-30T00:34:50.097Z,7.23
2018-06-30T00:37:19.369Z,6.50
2018-06-30T00:39:48.481Z,6.50
2018-06-30T00:42:17.742Z,7.07
2018-06-30T00:44:46.945Z,5.10
2018-06-30T00:47:16.089Z,5.20
2018-06-30T00:49:45.250Z,6.80
2018-06-30T00:52:14.622Z,6.30
2018-06-30T00:54:43.818Z,6.90
2018-06-30T00:57:13.208Z,6.10
2018-06-30T00:59:42.391Z,7.47
2018-06-30T01:02:11.645Z,7.37
2018-06-30T01:04:40.831Z,7.43
2018-06-30T01:07:10.021Z,7.07
2018-06-30T01:09:39.149Z,7.60
2018-06-30T01:12:08.370Z,8.40
2018-06-30T01:14:37.524Z,7.00
2018-06-30T01:17:06.872Z,7.20
2018-06-30T01:19:36.050Z,7.57
2018-06-30T01:22:05.307Z,6.73
2018-06-30T01:24:34.421Z,7.43
2018-06-30T01:27:03.567Z,7.60
2018-06-30T01:29:32.800Z,8.20
2018-06-30T01:32:01.969Z,8.00
2018-06-30T01:34:31.120Z,7.80
2018-06-30T01:37:00.466Z,7.83
2018-06-30T01:39:29.771Z,8.77
2018-06-30T01:41:58.985Z,8.23
2018-06-30T01:44:28.162Z,8.27
2018-06-30T01:46:57.368Z,7.70
2018-06-30T01:49:26.513Z,8.60
2018-06-30T01:51:55.632Z,8.20
2018-06-30T01:54:24.750Z,7.30
2018-06-30T01:56:53.953Z,7.10
2018-06-30T01:59:23.111Z,8.77
2018-06-30T02:01:52.351Z,9.67
2018-06-30T02:04:21.492Z,9.03
2018-06-30T02:06:50.619Z,7.80
2018-06-30T02:09:19.797Z,8.40
2018-06-30T02:11:48.959Z,9.50
2018-06-30T02:14:18.128Z,9.00
2018-06-30T02:16:47.336Z,8.57
2018-06-30T02:19:16.509Z,8.57
2018-06-30T02:21:45.679Z,7.53
2018-06-30T02:24:14.828Z,8.30
2018-06-30T02:26:43.976Z,9.77
2018-06-30T02:29:13.101Z,8.63
2018-06-30T02:31:42.300Z,9.10
2018-06-30T02:34:11.592Z,8.73
2018-06-30T02:36:40.856Z,9.60
2018-06-30T02:39:10.415Z,9.60
2018-06-30T02:41:39.542Z,8.73
2018-06-30T02:44:08.845Z,8.97
2018-06-30T02:46:37.954Z,8.40
2018-06-30T02:49:07.243Z,9.50
2018-06-30T02:51:36.403Z,9.77
2018-06-30T02:54:05.609Z,11.10
2018-06-30T02:56:34.812Z,9.20
2018-06-30T02:59:04.041Z,9.60
2018-06-30T03:01:33.205Z,10.30
2018-06-30T03:04:02.368Z,9.60
2018-06-30T03:06:31.493Z,10.10
2018-06-30T03:09:00.668Z,9.40
2018-06-30T03:11:29.828Z,9.67
2018-06-30T03:13:59.252Z,9.23
2018-06-30T03:16:28.471Z,9.00
2018-06-30T03:18:57.673Z,10.13
2018-06-30T03:21:26.856Z,10.80
2018-06-30T03:23:56.060Z,11.83
2018-06-30T03:26:25.231Z,9.57
2018-06-30T03:28:54.372Z,9.40
2018-06-30T03:31:23.587Z,10.93
2018-06-30T03:33:52.715Z,9.27
2018-06-30T03:36:22.041Z,9.97
2018-06-30T03:38:51.256Z,9.17
2018-06-30T03:41:20.386Z,8.73
2018-06-30T03:43:49.548Z,9.90
2018-06-30T03:46:18.739Z,9.80
2018-06-30T03:48:47.945Z,11.33
2018-06-30T03:51:18.295Z,9.80
2018-06-30T03:53:47.484Z,11.20
2018-06-30T03:56:16.700Z,11.47
2018-06-30T03:58:46.035Z,9.83
2018-06-30T04:01:15.305Z,10.53
2018-06-30T04:03:44.480Z,10.40
2018-06-30T04:06:13.631Z,10.70
2018-06-30T04:08:42.939Z,11.57
2018-06-30T04:11:12.115Z,10.17
2018-06-30T04:13:41.508Z,11.27
2018-06-30T04:16:10.766Z,10.63
2018-06-30T04:18:40.051Z,10.47
2018-06-30T04:21:09.266Z,9.97
2018-06-30T04:23:38.415Z,10.03
2018-06-30T04:26:07.633Z,9.63
2018-06-30T04:28:36.760Z,10.10
2018-06-30T04:31:05.933Z,10.90
2018-06-30T04:33:35.093Z,10.03
2018-06-30T04:36:04.298Z,10.10
2018-06-30T04:38:33.468Z,9.30
2018-06-30T04:41:02.610Z,10.80
2018-06-30T04:43:31.787Z,9.60
2018-06-30T04:46:01.027Z,9.37
2018-06-30T04:48:30.169Z,9.93
2018-06-30T04:50:59.353Z,9.43
2018-06-30T04:53:28.476Z,9.60
2018-06-30T04:55:57.668Z,10.60
2018-06-30T04:58:26.816Z,9.70
2018-06-30T05:00:56.012Z,9.40
2018-06-30T05:03:25.172Z,9.50
2018-06-30T05:05:54.479Z,10.03
2018-06-30T05:08:23.609Z,9.90
2018-06-30T05:10:52.776Z,9.70
2018-06-30T05:13:21.925Z,10.47
2018-06-30T05:15:51.237Z,9.00
2018-06-30T05:18:20.482Z,9.47
2018-06-30T05:20:49.699Z,9.37
2018-06-30T05:23:18.892Z,9.57
2018-06-30T05:25:48.077Z,8.67
2018-06-30T05:28:17.282Z,8.23
2018-06-30T05:30:46.495Z,6.63
2018-06-30T05:33:15.723Z,6.77
2018-06-30T05:35:44.854Z,7.47
2018-06-30T05:38:14.056Z,7.30
2018-06-30T05:40:43.253Z,6.83
2018-06-30T05:43:12.377Z,6.90
2018-06-30T05:45:41.626Z,6.50
2018-06-30T05:48:10.805Z,5.90
2018-06-30T05:50:40.076Z,6.07
2018-06-30T05:53:09.782Z,5.50
2018-06-30T05:55:42.557Z,5.33
2018-06-30T05:58:12.148Z,6.40
2018-06-30T06:00:41.776Z,5.40
2018-06-30T06:03:11.658Z,5.90
2018-06-30T06:05:40.904Z,4.90
2018-06-30T06:08:10.163Z,5.60
2018-06-30T06:10:39.333Z,4.90
2018-06-30T06:13:08.641Z,5.30
2018-06-30T06:15:38.292Z,4.93
2018-06-30T06:18:07.673Z,5.23
2018-06-30T06:20:36.853Z,5.50
2018-06-30T06:23:06.409Z,5.80
2018-06-30T06:25:36.327Z,5.10
2018-06-30T06:28:05.895Z,4.57
2018-06-30T06:30:35.095Z,5.00
2018-06-30T06:33:04.297Z,4.90
2018-06-30T06:35:33.505Z,4.87
2018-06-30T06:38:02.649Z,4.90
2018-06-30T06:40:31.848Z,4.50
2018-06-30T06:43:01.035Z,3.90
2018-06-30T06:45:30.265Z,4.90
2018-06-30T06:47:59.541Z,5.03
2018-06-30T06:50:28.767Z,4.33
2018-06-30T06:52:58.019Z,4.50
2018-06-30T06:55:27.233Z,4.50
2018-06-30T06:57:56.373Z,3.90
2018-06-30T07:00:25.532Z,4.77
2018-06-30T07:02:54.758Z,4.50
2018-06-30T07:05:23.933Z,4.07
2018-06-30T07:07:53.198Z,3.90
2018-06-30T07:10:22.335Z,4.17
2018-06-30T07:12:51.553Z,5.30
2018-06-30T07:15:20.692Z,4.50
2018-06-30T07:17:49.917Z,4.10
2018-06-30T07:20:19.149Z,3.87
2018-06-30T07:22:48.300Z,3.53
2018-06-30T07:25:17.521Z,3.73
2018-06-30T07:27:46.741Z,3.87
2018-06-30T07:30:15.991Z,3.50
2018-06-30T07:32:45.131Z,3.50
2018-06-30T07:35:14.279Z,4.47
2018-06-30T07:37:43.427Z,4.30
2018-06-30T07:40:12.639Z,4.47
2018-06-30T07:42:41.883Z,3.20
2018-06-30T07:45:11.053Z,3.07
2018-06-30T07:47:40.213Z,2.67
2018-06-30T07:50:09.507Z,3.00
2018-06-30T07:52:39.053Z,3.30
2018-06-30T07:55:08.473Z,3.00
2018-06-30T07:57:37.759Z,2.80
2018-06-30T08:00:07.128Z,2.30
2018-06-30T08:02:36.338Z,2.70
2018-06-30T08:05:05.972Z,2.30
2018-06-30T08:07:35.180Z,2.43
2018-06-30T08:10:04.625Z,2.47
2018-06-30T08:12:33.920Z,2.20
2018-06-30T08:15:03.092Z,3.70
2018-06-30T08:17:32.387Z,2.30
2018-06-30T08:20:01.642Z,2.20
2018-06-30T08:22:31.089Z,2.53
2018-06-30T08:25:00.292Z,2.33
2018-06-30T08:27:29.641Z,2.27
2018-06-30T08:29:58.994Z,2.30
2018-06-30T08:32:28.686Z,2.17
2018-06-30T08:34:58.135Z,2.70
2018-06-30T08:37:27.304Z,2.23
2018-06-30T08:39:56.670Z,1.73
2018-06-30T08:42:25.905Z,2.20
2018-06-30T08:44:55.108Z,3.30
2018-06-30T08:47:26.412Z,2.53
2018-06-30T08:49:57.664Z,2.73
2018-06-30T08:52:27.233Z,2.07
2018-06-30T08:54:56.949Z,2.10
2018-06-30T08:57:26.592Z,2.10
2018-06-30T08:59:56.289Z,2.40
2018-06-30T09:02:25.636Z,2.73
2018-06-30T09:04:57.952Z,2.30
2018-06-30T09:07:27.139Z,2.33
2018-06-30T09:09:56.572Z,2.73
2018-06-30T09:12:25.862Z,2.50
2018-06-30T09:14:55.094Z,2.50
2018-06-30T09:17:24.505Z,1.70
2018-06-30T09:19:53.931Z,2.10
2018-06-30T09:22:23.149Z,2.30
2018-06-30T09:24:52.442Z,2.03
2018-06-30T09:27:22.018Z,2.47
2018-06-30T09:29:51.181Z,1.60
2018-06-30T09:32:20.392Z,2.07
2018-06-30T09:34:50.468Z,1.83
2018-06-30T09:37:19.913Z,1.50
2018-06-30T09:39:49.166Z,1.90
2018-06-30T09:42:18.487Z,1.60
2018-06-30T09:44:47.814Z,1.50
2018-06-30T09:47:18.931Z,1.80
2018-06-30T09:49:48.144Z,2.13
2018-06-30T09:52:17.605Z,1.50
2018-06-30T09:54:46.804Z,1.37
2018-06-30T09:57:16.019Z,1.67
2018-06-30T09:59:45.464Z,1.90
2018-06-30T10:02:15.468Z,1.30
2018-06-30T10:04:45.589Z,1.90
2018-06-30T10:07:15.507Z,1.50
2018-06-30T10:09:45.366Z,2.10
2018-06-30T10:12:15.835Z,2.93
2018-06-30T10:14:45.328Z,1.80
2018-06-30T10:17:14.596Z,1.70
2018-06-30T10:19:43.873Z,1.00
2018-06-30T10:22:13.245Z,1.53
2018-06-30T10:24:43.452Z,1.23
2018-06-30T10:27:12.785Z,1.40
2018-06-30T10:29:42.039Z,1.13
2018-06-30T10:32:11.271Z,1.60
2018-06-30T10:34:40.459Z,1.13
2018-06-30T10:37:09.707Z,1.30
2018-06-30T10:39:39.261Z,1.30
2018-06-30T10:42:09.092Z,1.20
2018-06-30T10:44:38.730Z,1.10
2018-06-30T10:47:07.969Z,1.30
2018-06-30T10:49:37.107Z,1.30
2018-06-30T10:52:06.372Z,1.00
2018-06-30T10:54:35.631Z,1.33
2018-06-30T10:57:05.065Z,1.60
2018-06-30T10:59:34.426Z,1.27
2018-06-30T11:02:03.437Z,1.23
2018-06-30T11:04:32.664Z,1.50
2018-06-30T11:07:02.096Z,1.30
2018-06-30T11:09:31.269Z,0.93
2018-06-30T11:12:01.403Z,1.33
2018-06-30T11:14:30.624Z,1.37
2018-06-30T11:17:00.106Z,1.57
2018-06-30T11:19:29.326Z,1.07
2018-06-30T11:21:58.624Z,0.90
2018-06-30T11:24:28.056Z,1.10
2018-06-30T11:26:57.332Z,1.57
2018-06-30T11:29:26.836Z,1.10
2018-06-30T11:31:56.051Z,0.97
2018-06-30T11:34:25.487Z,0.90
2018-06-30T11:36:54.786Z,1.00
2018-06-30T11:39:24.018Z,1.27
2018-06-30T11:41:53.229Z,0.90
2018-06-30T11:44:22.508Z,0.90
2018-06-30T11:46:51.695Z,0.80
2018-06-30T11:49:20.852Z,0.73
2018-06-30T11:51:50.049Z,0.80
2018-06-30T11:54:19.232Z,0.80
2018-06-30T11:56:48.398Z,0.80
2018-06-30T11:59:17.604Z,0.60
2018-06-30T12:01:47.772Z,0.70
2018-06-30T12:04:18.059Z,0.70
2018-06-30T12:06:47.249Z,1.03
2018-06-30T12:09:16.536Z,0.70
2018-06-30T12:11:45.862Z,0.80
2018-06-30T12:14:15.121Z,0.60
2018-06-30T12:16:44.392Z,0.67
2018-06-30T12:19:14.485Z,0.60
2018-06-30T12:21:43.702Z,0.57
2018-06-30T12:24:13.230Z,0.63
2018-06-30T12:26:42.552Z,0.70
2018-06-30T12:29:11.879Z,0.70
2018-06-30T12:31:41.063Z,0.90
2018-06-30T12:34:10.295Z,0.87
2018-06-30T12:36:39.536Z,0.60
2018-06-30T12:39:09.811Z,0.70
2018-06-30T12:41:39.591Z,0.63
2018-06-30T12:44:09.044Z,0.60
2018-06-30T12:46:38.638Z,0.70
2018-06-30T12:49:07.825Z,0.60
2018-06-30T12:51:37.224Z,0.50
2018-06-30T12:54:06.627Z,0.60
2018-06-30T12:56:35.782Z,0.60
2018-06-30T12:59:05.046Z,0.60
2018-06-30T13:01:34.448Z,0.60
2018-06-30T13:04:03.653Z,0.70
2018-06-30T13:06:32.944Z,0.60
2018-06-30T13:09:02.157Z,0.80
2018-06-30T13:11:31.536Z,0.70
2018-06-30T13:14:00.911Z,0.70
2018-06-30T13:16:30.261Z,1.10
2018-06-30T13:18:59.789Z,0.80
2018-06-30T13:21:29.090Z,0.90
2018-06-30T13:23:58.466Z,0.60
2018-06-30T13:26:27.694Z,0.60
2018-06-30T13:28:57.059Z,0.50
2018-06-30T13:31:26.255Z,0.60
2018-06-30T13:33:56.695Z,0.67
2018-06-30T13:36:26.063Z,0.60
2018-06-30T13:55:42.006Z,0.70
2018-06-30T14:01:35.127Z,0.50
2018-06-30T14:10:36.542Z,0.80
2018-06-30T14:13:07.153Z,0.97
2018-06-30T14:15:37.347Z,0.73
2018-06-30T14:18:06.607Z,0.73
2018-06-30T14:20:36.461Z,0.60
2018-06-30T14:23:05.761Z,0.50
2018-06-30T14:25:35.320Z,0.73
2018-06-30T14:28:05.390Z,0.60
2018-06-30T14:30:34.820Z,0.60
2018-06-30T14:33:04.312Z,0.57
2018-06-30T14:35:34.261Z,0.70
2018-06-30T14:38:03.548Z,0.73
2018-06-30T14:40:33.029Z,0.50
2018-06-30T14:43:02.488Z,0.80
2018-06-30T14:45:31.952Z,0.60
2018-06-30T14:48:01.419Z,0.67
2018-06-30T14:50:30.629Z,0.70
2018-06-30T14:52:59.772Z,0.60
2018-06-30T14:55:29.047Z,0.53
2018-06-30T14:57:59.042Z,0.73
2018-06-30T15:00:28.264Z,0.70
2018-06-30T15:02:58.506Z,0.60
2018-06-30T15:05:28.007Z,0.80
2018-06-30T15:07:57.852Z,0.93
2018-06-30T15:10:27.318Z,0.70
2018-06-30T15:12:56.604Z,0.80
2018-06-30T15:15:25.981Z,0.70
2018-06-30T15:17:55.583Z,1.10
2018-06-30T15:20:24.826Z,0.70
2018-06-30T15:22:54.324Z,0.80
2018-06-30T15:25:23.484Z,1.20
2018-06-30T15:27:52.816Z,0.60
2018-06-30T15:30:22.259Z,0.83
2018-06-30T15:32:51.527Z,1.03
2018-06-30T15:35:20.852Z,1.10
2018-06-30T15:37:50.230Z,0.90
2018-06-30T15:40:19.423Z,1.40
2018-06-30T15:42:48.560Z,0.93
2018-06-30T15:45:17.980Z,1.10
2018-06-30T15:47:47.469Z,0.70
2018-06-30T15:50:16.729Z,0.73
2018-06-30T15:52:45.901Z,0.80
2018-06-30T15:55:15.060Z,1.03
2018-06-30T15:57:44.222Z,0.90
2018-06-30T16:00:13.641Z,0.73
2018-06-30T16:02:42.900Z,0.80
2018-06-30T16:05:12.156Z,0.87
2018-06-30T16:07:41.359Z,1.03
2018-06-30T16:10:10.560Z,1.00
2018-06-30T16:12:39.730Z,0.97
2018-06-30T16:15:08.985Z,1.27
2018-06-30T16:17:38.152Z,1.00
2018-06-30T16:20:07.423Z,1.00
2018-06-30T16:22:36.774Z,0.80
2018-06-30T16:25:06.225Z,0.80
2018-06-30T16:27:35.420Z,0.90
2018-06-30T16:30:05.083Z,0.60
2018-06-30T16:32:34.208Z,0.93
2018-06-30T16:35:03.426Z,0.67
2018-06-30T16:37:32.661Z,0.70
2018-06-30T16:40:01.849Z,0.90
2018-06-30T16:42:30.998Z,0.67
2018-06-30T16:45:00.147Z,0.70
2018-06-30T16:47:29.306Z,0.60
2018-06-30T16:49:58.612Z,0.70
2018-06-30T16:52:27.817Z,0.70
2018-06-30T16:54:57.131Z,0.60
2018-06-30T16:57:26.483Z,0.53
2018-06-30T16:59:55.639Z,0.60
2018-06-30T17:02:24.888Z,0.60
2018-06-30T17:04:54.336Z,1.13
2018-06-30T17:07:23.566Z,0.60
2018-06-30T17:09:52.813Z,0.60
2018-06-30T17:12:22.004Z,0.60
2018-06-30T17:14:51.173Z,0.70
2018-06-30T17:17:20.321Z,0.70
2018-06-30T17:19:49.485Z,0.60
2018-06-30T17:22:18.688Z,0.60
2018-06-30T17:24:47.870Z,0.97
2018-06-30T17:27:17.212Z,0.67
2018-06-30T17:29:46.401Z,0.77
2018-06-30T17:32:15.680Z,0.60
2018-06-30T17:34:44.812Z,0.60
2018-06-30T17:37:13.950Z,0.60
2018-06-30T17:39:43.105Z,0.60
2018-06-30T17:42:12.260Z,0.70
2018-06-30T17:44:41.431Z,0.60
2018-06-30T17:47:10.554Z,0.60
2018-06-30T17:49:39.720Z,0.70
2018-06-30T17:52:08.980Z,0.73
2018-06-30T17:54:38.146Z,0.63
2018-06-30T17:57:07.326Z,0.60
2018-06-30T17:59:36.471Z,0.60
2018-06-30T18:02:05.703Z,0.80
2018-06-30T18:04:34.823Z,0.70
2018-06-30T18:07:03.985Z,0.70
2018-06-30T18:09:33.135Z,0.60
2018-06-30T18:12:02.264Z,0.60
2018-06-30T18:14:31.375Z,0.80
2018-06-30T18:17:00.515Z,0.70
2018-06-30T18:19:29.636Z,0.73
2018-06-30T18:21:58.838Z,0.80
2018-06-30T18:24:27.983Z,0.67
2018-06-30T18:26:57.124Z,0.63
2018-06-30T18:29:26.295Z,0.60
2018-06-30T18:31:55.416Z,0.70
2018-06-30T18:34:24.586Z,1.07
2018-06-30T18:36:53.740Z,0.80
2018-06-30T18:39:23.006Z,0.70
2018-06-30T18:41:52.119Z,0.67
2018-06-30T18:44:21.305Z,0.60
2018-06-30T18:46:50.473Z,0.60
2018-06-30T18:49:19.625Z,0.80
2018-06-30T18:51:48.783Z,0.90
2018-06-30T18:54:17.912Z,0.70
2018-06-30T18:56:47.094Z,0.80
2018-06-30T18:59:16.244Z,0.70
2018-06-30T19:01:45.373Z,0.60
2018-06-30T19:04:14.480Z,0.80
2018-06-30T19:06:43.592Z,0.70
2018-06-30T19:09:12.723Z,0.77
2018-06-30T19:11:41.829Z,0.80
2018-06-30T19:14:10.992Z,0.80
2018-06-30T19:16:40.120Z,0.80
2018-06-30T19:19:09.248Z,0.90
2018-06-30T19:21:38.400Z,0.80
2018-06-30T19:24:07.553Z,1.00
2018-06-30T19:26:36.699Z,0.80
2018-06-30T19:29:05.875Z,0.80
2018-06-30T19:31:35.021Z,0.80
2018-06-30T19:34:05.156Z,0.73
2018-06-30T19:36:34.366Z,1.00
2018-06-30T19:39:06.253Z,0.70
2018-06-30T19:41:35.397Z,0.90
2018-06-30T19:44:05.565Z,1.03
2018-06-30T19:46:34.684Z,0.73
2018-06-30T19:49:03.971Z,0.70
2018-06-30T19:51:33.109Z,1.00
2018-06-30T19:54:02.290Z,0.80
2018-06-30T19:56:31.413Z,0.83
2018-06-30T19:59:00.531Z,0.67
2018-06-30T20:01:29.749Z,0.90
2018-06-30T20:03:58.852Z,0.77
2018-06-30T20:06:28.009Z,1.17
2018-06-30T20:08:57.140Z,0.90
2018-06-30T20:11:26.301Z,0.80
2018-06-30T20:13:55.453Z,0.87
2018-06-30T20:16:24.611Z,0.87
2018-06-30T20:18:53.725Z,0.83
2018-06-30T20:21:22.841Z,1.07
2018-06-30T20:23:51.960Z,0.90
2018-06-30T20:26:21.070Z,0.70
2018-06-30T20:28:50.240Z,0.77
2018-06-30T20:31:19.359Z,0.90
2018-06-30T20:33:48.527Z,0.87
2018-06-30T20:36:17.613Z,1.10
2018-06-30T20:38:46.716Z,0.90
2018-06-30T20:41:15.840Z,0.80
2018-06-30T20:43:44.972Z,0.67
2018-06-30T20:46:14.069Z,0.90
2018-06-30T20:48:43.185Z,1.03
2018-06-30T20:51:12.347Z,0.80
2018-06-30T20:53:41.493Z,0.60
2018-06-30T20:56:10.645Z,0.67
2018-06-30T20:58:39.752Z,0.70
2018-06-30T21:01:08.946Z,1.10
2018-06-30T21:03:38.090Z,0.73
2018-06-30T21:06:07.221Z,0.70
2018-06-30T21:08:36.381Z,0.80
2018-06-30T21:11:05.554Z,0.90
2018-06-30T21:13:34.769Z,0.90
2018-06-30T21:16:03.941Z,0.73
2018-06-30T21:18:33.051Z,0.80
2018-06-30T21:21:02.182Z,0.73
2018-06-30T21:23:31.308Z,0.70
2018-06-30T21:26:00.485Z,0.60
2018-06-30T21:28:29.593Z,0.70
2018-06-30T21:30:58.746Z,0.70
2018-06-30T21:33:27.839Z,0.93
2018-06-30T21:35:56.945Z,0.60
2018-06-30T21:38:26.148Z,1.00
2018-06-30T21:40:55.292Z,0.60
2018-06-30T21:43:24.408Z,0.80
2018-06-30T21:45:53.525Z,0.70
2018-06-30T21:48:22.636Z,0.70
2018-06-30T21:50:51.801Z,0.80
2018-06-30T21:53:20.955Z,0.53
2018-06-30T21:55:50.068Z,1.60
2018-06-30T21:58:19.176Z,0.90
2018-06-30T22:00:53.568Z,0.93
2018-06-30T22:03:24.668Z,0.70
2018-06-30T22:05:55.067Z,0.90
2018-06-30T22:08:24.187Z,0.60
2018-06-30T22:10:53.420Z,1.10
2018-06-30T22:13:22.558Z,0.80
2018-06-30T22:15:51.705Z,0.60
2018-06-30T22:18:20.844Z,1.47
2018-06-30T22:20:50.015Z,1.40
2018-06-30T22:23:19.161Z,0.73
2018-06-30T22:25:48.320Z,0.70
2018-06-30T22:28:17.469Z,0.73
2018-06-30T22:30:46.638Z,0.70
2018-06-30T22:33:15.780Z,0.80
2018-06-30T22:35:44.925Z,0.80
2018-06-30T22:38:14.021Z,1.43
2018-06-30T22:40:43.139Z,1.00
2018-06-30T22:43:12.283Z,0.90
2018-06-30T22:46:43.964Z,1.20
2018-06-30T22:49:13.076Z,0.80
2018-06-30T22:51:42.252Z,0.70
2018-06-30T22:54:11.417Z,1.00
2018-06-30T22:56:40.534Z,0.80
2018-06-30T22:59:09.665Z,0.80
2018-06-30T23:01:38.796Z,0.80
2018-06-30T23:04:07.928Z,0.93
2018-06-30T23:06:37.070Z,0.70
2018-06-30T23:09:08.933Z,0.80
2018-06-30T23:11:38.072Z,0.73
2018-06-30T23:14:07.466Z,0.80
2018-06-30T23:16:36.581Z,0.70
2018-06-30T23:19:05.708Z,0.80
2018-06-30T23:21:34.858Z,0.70
2018-06-30T23:24:03.967Z,0.70
2018-06-30T23:26:33.141Z,0.70
2018-06-30T23:29:02.261Z,0.93
2018-06-30T23:31:31.394Z,0.80
2018-06-30T23:34:00.492Z,0.60
2018-06-30T23:36:29.613Z,1.00
2018-06-30T23:38:58.748Z,0.70
2018-06-30T23:41:27.866Z,0.80
2018-06-30T23:43:57.213Z,0.77
2018-06-30T23:46:26.315Z,0.70
2018-06-30T23:48:55.432Z,0.80
2018-06-30T23:51:24.540Z,0.70
2018-06-30T23:53:53.644Z,0.73
2018-06-30T23:56:22.780Z,0.73
2018-06-30T23:58:52.358Z,0.80
